createdAt,value
2023-03-14T00:01:25.584Z,1.20
2023-03-14T00:03:52.233Z,1.30
2023-03-14T00:06:19.622Z,1.40
2023-03-14T00:08:46.321Z,1.27
2023-03-14T00:11:15.853Z,1.50
2023-03-14T00:13:42.917Z,1.50
2023-03-14T00:16:12.908Z,1.60
2023-03-14T00:18:40.112Z,1.37
2023-03-14T00:21:08.265Z,1.30
2023-03-14T00:23:37.300Z,1.63
2023-03-14T00:26:12.461Z,1.30
2023-03-14T00:28:39.765Z,1.33
2023-03-14T00:31:07.865Z,1.30
2023-03-14T00:33:35.072Z,1.60
2023-03-14T00:36:05.231Z,1.27
2023-03-14T00:38:32.815Z,1.30
2023-03-14T00:40:59.202Z,1.57
2023-03-14T00:43:25.780Z,1.40
2023-03-14T00:45:53.604Z,1.10
2023-03-14T00:48:20.916Z,1.47
2023-03-14T00:50:48.048Z,1.40
2023-03-14T00:53:14.466Z,1.70
2023-03-14T00:55:43.316Z,1.40
2023-03-14T00:58:11.058Z,1.60
2023-03-14T01:00:37.750Z,1.73
2023-03-14T01:03:04.318Z,1.50
2023-03-14T01:05:31.170Z,1.30
2023-03-14T01:07:57.965Z,1.40
2023-03-14T01:10:24.773Z,2.00
2023-03-14T01:12:51.339Z,1.33
2023-03-14T01:15:17.947Z,1.50
2023-03-14T01:17:44.666Z,1.20
2023-03-14T01:20:13.385Z,1.60
2023-03-14T01:22:40.745Z,1.60
2023-03-14T01:25:09.688Z,1.40
2023-03-14T01:27:35.971Z,1.30
2023-03-14T01:30:03.650Z,1.33
2023-03-14T01:32:30.248Z,1.43
2023-03-14T01:34:56.625Z,1.27
2023-03-14T01:37:23.054Z,1.60
2023-03-14T01:39:51.867Z,1.50
2023-03-14T01:42:18.245Z,1.47
2023-03-14T01:45:00.127Z,1.20
2023-03-14T01:47:27.013Z,1.53
2023-03-14T01:50:11.355Z,1.40
2023-03-14T01:52:43.815Z,1.77
2023-03-14T01:55:14.829Z,1.57
2023-03-14T01:57:48.798Z,1.50
2023-03-14T02:00:20.441Z,1.17
2023-03-14T02:02:51.434Z,1.90
2023-03-14T02:05:24.022Z,1.50
2023-03-14T02:07:52.160Z,1.60
2023-03-14T02:10:21.580Z,1.43
2023-03-14T02:12:49.128Z,1.30
2023-03-14T02:15:16.248Z,1.50
2023-03-14T02:17:44.289Z,1.40
2023-03-14T02:20:38.823Z,1.37
2023-03-14T02:23:06.092Z,1.40
2023-03-14T02:25:51.118Z,1.50
2023-03-14T02:28:17.755Z,1.50
2023-03-14T02:30:44.818Z,1.30
2023-03-14T02:33:15.302Z,1.60
2023-03-14T02:36:06.346Z,1.40
2023-03-14T02:38:36.221Z,1.50
2023-03-14T02:41:02.842Z,1.40
2023-03-14T02:43:29.167Z,1.57
2023-03-14T02:45:56.490Z,1.50
2023-03-14T02:48:26.703Z,1.60
2023-03-14T02:50:57.140Z,1.60
2023-03-14T02:53:33.447Z,1.93
2023-03-14T02:56:00.504Z,1.70
2023-03-14T02:58:28.663Z,1.80
2023-03-14T03:00:55.360Z,1.47
2023-03-14T03:03:22.022Z,1.83
2023-03-14T03:05:51.443Z,1.93
2023-03-14T03:08:22.143Z,1.80
2023-03-14T03:10:48.946Z,1.53
2023-03-14T03:13:15.488Z,2.00
2023-03-14T03:15:41.986Z,1.67
2023-03-14T03:18:08.737Z,1.70
2023-03-14T03:20:35.207Z,1.70
2023-03-14T03:23:01.749Z,1.70
2023-03-14T03:25:28.253Z,1.53
2023-03-14T03:27:55.048Z,1.83
2023-03-14T03:30:21.724Z,1.93
2023-03-14T03:32:48.631Z,1.70
2023-03-14T03:35:15.084Z,1.87
2023-03-14T03:37:41.554Z,2.00
2023-03-14T03:40:09.313Z,2.17
2023-03-14T03:42:35.912Z,1.43
2023-03-14T03:45:02.805Z,1.83
2023-03-14T03:47:31.229Z,1.40
2023-03-14T03:49:57.654Z,1.50
2023-03-14T03:52:24.033Z,1.60
2023-03-14T03:54:50.369Z,1.50
2023-03-14T03:57:16.744Z,1.63
2023-03-14T03:59:43.049Z,1.30
2023-03-14T04:02:09.442Z,1.53
2023-03-14T04:04:36.203Z,1.67
2023-03-14T04:07:02.861Z,1.97
2023-03-14T04:09:29.226Z,1.40
2023-03-14T04:11:55.613Z,1.57
2023-03-14T04:14:22.535Z,1.70
2023-03-14T04:16:48.843Z,1.70
2023-03-14T04:19:15.401Z,1.30
2023-03-14T04:21:45.661Z,1.40
2023-03-14T04:24:12.209Z,1.63
2023-03-14T04:26:38.553Z,1.40
2023-03-14T04:29:04.890Z,1.50
2023-03-14T04:31:31.574Z,1.20
2023-03-14T04:33:57.981Z,1.27
2023-03-14T04:36:24.326Z,1.43
2023-03-14T04:38:50.751Z,1.30
2023-03-14T04:41:17.099Z,1.30
2023-03-14T04:43:43.398Z,1.27
2023-03-14T04:46:09.802Z,1.60
2023-03-14T04:48:36.264Z,1.30
2023-03-14T04:51:02.836Z,1.40
2023-03-14T04:53:30.669Z,1.10
2023-03-14T04:55:58.856Z,1.10
2023-03-14T04:58:25.318Z,1.10
2023-03-14T05:00:51.702Z,0.70
2023-03-14T05:03:19.367Z,1.30
2023-03-14T05:05:46.247Z,1.17
2023-03-14T05:08:12.729Z,1.00
2023-03-14T05:10:39.129Z,1.23
2023-03-14T05:13:05.499Z,1.23
2023-03-14T05:15:31.854Z,1.20
2023-03-14T05:17:58.231Z,1.10
2023-03-14T05:20:24.648Z,0.80
2023-03-14T05:22:50.987Z,0.90
2023-03-14T05:25:17.364Z,1.10
2023-03-14T05:27:43.701Z,1.03
2023-03-14T05:30:10.885Z,0.93
2023-03-14T05:32:37.284Z,1.20
2023-03-14T05:35:04.187Z,1.23
2023-03-14T05:37:30.514Z,0.90
2023-03-14T05:39:56.893Z,0.87
2023-03-14T05:42:23.212Z,1.13
2023-03-14T05:44:49.539Z,1.10
2023-03-14T05:47:16.034Z,1.10
2023-03-14T05:49:42.428Z,1.30
2023-03-14T05:52:08.849Z,1.00
2023-03-14T05:54:35.245Z,1.10
2023-03-14T05:57:01.584Z,1.00
2023-03-14T05:59:28.041Z,1.17
2023-03-14T06:01:54.372Z,1.00
2023-03-14T06:04:20.723Z,1.10
2023-03-14T06:06:47.148Z,0.90
2023-03-14T06:09:13.504Z,1.10
2023-03-14T06:11:39.854Z,0.90
2023-03-14T06:14:06.260Z,0.87
2023-03-14T06:16:33.257Z,1.00
2023-03-14T06:18:59.841Z,1.30
2023-03-14T06:21:26.468Z,1.60
2023-03-14T06:23:52.845Z,1.10
2023-03-14T06:26:19.274Z,0.90
2023-03-14T06:28:45.684Z,1.10
2023-03-14T06:31:12.034Z,0.90
2023-03-14T06:33:38.643Z,1.33
2023-03-14T06:36:05.456Z,1.00
2023-03-14T06:38:31.808Z,0.97
2023-03-14T06:41:06.906Z,0.90
2023-03-14T06:43:33.695Z,1.20
2023-03-14T06:46:02.430Z,1.07
2023-03-14T06:48:28.898Z,1.17
2023-03-14T06:50:55.259Z,1.00
2023-03-14T06:53:21.736Z,1.40
2023-03-14T06:55:48.383Z,1.17
2023-03-14T06:58:15.209Z,1.57
2023-03-14T07:00:41.719Z,1.43
2023-03-14T07:03:08.229Z,1.60
2023-03-14T07:05:34.526Z,1.60
2023-03-14T07:08:01.374Z,1.70
2023-03-14T07:10:27.816Z,1.80
2023-03-14T07:12:54.690Z,1.83
2023-03-14T07:15:21.303Z,1.70
2023-03-14T07:17:50.593Z,1.20
2023-03-14T07:20:17.511Z,1.10
2023-03-14T07:22:43.895Z,1.40
2023-03-14T07:25:12.932Z,1.60
2023-03-14T07:27:39.606Z,1.60
2023-03-14T07:30:06.823Z,1.20
2023-03-14T07:32:33.808Z,1.50
2023-03-14T07:35:00.273Z,1.60
2023-03-14T07:37:26.738Z,1.77
2023-03-14T07:39:53.130Z,1.50
2023-03-14T07:42:19.524Z,1.77
2023-03-14T07:44:45.833Z,1.30
2023-03-14T07:47:12.607Z,1.67
2023-03-14T07:49:38.974Z,1.73
2023-03-14T07:52:05.310Z,1.30
2023-03-14T07:54:31.648Z,1.47
2023-03-14T07:57:01.432Z,1.60
2023-03-14T07:59:28.773Z,1.90
2023-03-14T08:01:55.167Z,1.50
2023-03-14T08:04:21.487Z,1.60
2023-03-14T08:06:47.810Z,1.60
2023-03-14T08:09:14.243Z,1.57
2023-03-14T08:11:40.597Z,1.90
2023-03-14T08:14:07.011Z,2.20
2023-03-14T08:16:33.439Z,2.40
2023-03-14T08:18:59.775Z,1.60
2023-03-14T08:21:26.109Z,2.07
2023-03-14T08:23:52.532Z,1.60
2023-03-14T08:26:18.876Z,1.50
2023-03-14T08:28:45.255Z,1.80
2023-03-14T08:31:11.874Z,1.50
2023-03-14T08:33:38.341Z,1.33
2023-03-14T08:36:04.875Z,1.43
2023-03-14T08:38:31.220Z,1.30
2023-03-14T08:40:59.589Z,1.50
2023-03-14T08:43:28.665Z,2.03
2023-03-14T08:45:58.786Z,1.47
2023-03-14T08:48:25.148Z,1.40
2023-03-14T08:50:51.542Z,1.30
2023-03-14T08:53:18.014Z,1.20
2023-03-14T08:55:44.427Z,1.23
2023-03-14T08:58:10.804Z,1.30
2023-03-14T09:00:37.192Z,1.37
2023-03-14T09:03:03.592Z,1.57
2023-03-14T09:05:33.041Z,1.53
2023-03-14T09:07:59.380Z,1.40
2023-03-14T09:10:25.714Z,1.60
2023-03-14T09:12:52.121Z,1.77
2023-03-14T09:15:18.530Z,1.80
2023-03-14T09:17:45.415Z,1.50
2023-03-14T09:20:12.174Z,1.53
2023-03-14T09:22:38.616Z,1.70
2023-03-14T09:25:05.785Z,1.80
2023-03-14T09:27:32.222Z,1.63
2023-03-14T09:29:58.582Z,1.50
2023-03-14T09:32:24.987Z,1.50
2023-03-14T09:34:51.493Z,1.20
2023-03-14T09:37:17.855Z,1.00
2023-03-14T09:39:44.405Z,1.57
2023-03-14T09:42:17.455Z,1.10
2023-03-14T09:44:54.763Z,1.10
2023-03-14T09:47:21.922Z,1.20
2023-03-14T09:49:48.349Z,1.07
2023-03-14T09:52:27.714Z,1.30
2023-03-14T09:55:00.485Z,1.20
2023-03-14T09:57:27.951Z,1.20
2023-03-14T09:59:58.512Z,1.00
2023-03-14T10:02:29.576Z,1.30
2023-03-14T10:04:55.876Z,1.20
2023-03-14T10:07:33.223Z,1.50
2023-03-14T10:10:00.593Z,1.10
2023-03-14T10:12:37.408Z,0.90
2023-03-14T10:15:10.314Z,1.37
2023-03-14T10:17:47.736Z,0.90
2023-03-14T10:20:42.748Z,0.90
2023-03-14T10:23:12.046Z,1.03
2023-03-14T10:25:43.804Z,0.97
2023-03-14T10:28:52.236Z,1.10
2023-03-14T10:31:19.899Z,0.90
2023-03-14T10:34:01.506Z,0.90
2023-03-14T10:36:30.213Z,1.10
2023-03-14T10:39:49.187Z,0.90
2023-03-14T10:42:18.027Z,0.70
2023-03-14T10:44:45.057Z,0.90
2023-03-14T10:47:20.473Z,1.10
2023-03-14T10:49:46.989Z,1.10
2023-03-14T10:52:35.743Z,1.57
2023-03-14T10:55:13.617Z,0.90
2023-03-14T10:57:44.664Z,1.00
2023-03-14T11:00:22.891Z,1.63
2023-03-14T11:02:58.403Z,1.00
2023-03-14T11:05:35.143Z,1.33
2023-03-14T11:08:14.560Z,0.97
2023-03-14T11:10:44.588Z,0.80
2023-03-14T11:13:21.265Z,0.80
2023-03-14T11:15:50.334Z,1.10
2023-03-14T11:18:46.090Z,1.70
2023-03-14T11:21:18.446Z,1.13
2023-03-14T11:23:57.367Z,0.70
2023-03-14T11:26:35.786Z,0.97
2023-03-14T11:29:26.962Z,0.70
2023-03-14T11:31:58.437Z,0.80
2023-03-14T11:34:47.256Z,1.20
2023-03-14T11:37:53.286Z,0.60
2023-03-14T11:40:26.036Z,0.60
2023-03-14T11:43:17.931Z,0.87
2023-03-14T11:45:45.806Z,0.60
2023-03-14T11:48:18.348Z,0.63
2023-03-14T11:50:48.413Z,0.60
2023-03-14T11:53:21.046Z,0.40
2023-03-14T11:55:48.005Z,0.30
2023-03-14T11:58:22.250Z,0.40
2023-03-14T12:00:51.205Z,0.43
2023-03-14T12:03:25.080Z,0.40
2023-03-14T12:06:14.287Z,0.40
2023-03-14T12:08:51.709Z,0.40
2023-03-14T12:11:20.165Z,0.40
2023-03-14T12:13:50.358Z,0.40
2023-03-14T12:16:41.083Z,0.40
2023-03-14T12:19:28.917Z,0.43
2023-03-14T12:22:18.698Z,0.33
2023-03-14T12:24:57.317Z,0.50
2023-03-14T12:27:55.707Z,0.40
2023-03-14T12:30:42.470Z,0.30
2023-03-14T12:33:11.575Z,0.30
2023-03-14T12:35:38.370Z,0.40
2023-03-14T12:38:27.552Z,0.30
2023-03-14T12:41:00.456Z,0.37
2023-03-14T12:43:30.580Z,0.43
2023-03-14T12:46:18.873Z,0.50
2023-03-14T12:48:48.378Z,0.40
2023-03-14T12:51:17.585Z,0.30
2023-03-14T12:54:21.488Z,0.40
2023-03-14T12:56:53.696Z,0.50
2023-03-14T12:59:46.757Z,0.47
2023-03-14T13:02:24.878Z,0.50
2023-03-14T13:05:02.443Z,0.47
2023-03-14T13:07:56.721Z,0.50
2023-03-14T13:10:28.062Z,1.17
2023-03-14T13:13:28.982Z,0.40
2023-03-14T13:16:04.485Z,0.43
2023-03-14T13:18:36.933Z,0.40
2023-03-14T13:21:08.733Z,0.30
2023-03-14T13:23:37.967Z,0.40
2023-03-14T13:26:11.536Z,0.40
2023-03-14T13:28:38.134Z,0.40
2023-03-14T13:31:06.500Z,0.30
2023-03-14T13:33:35.552Z,0.40
2023-03-14T13:36:04.858Z,0.30
2023-03-14T13:38:35.492Z,0.67
2023-03-14T13:41:06.773Z,0.60
2023-03-14T13:43:36.946Z,0.73
2023-03-14T13:46:16.281Z,2.00
2023-03-14T13:48:48.553Z,0.67
2023-03-14T13:51:18.717Z,0.87
2023-03-14T13:53:45.944Z,0.60
2023-03-14T13:56:13.180Z,0.80
2023-03-14T13:58:41.717Z,0.90
2023-03-14T14:01:32.678Z,1.00
2023-03-14T14:04:07.410Z,1.20
2023-03-14T14:06:37.094Z,1.40
2023-03-14T14:09:12.040Z,1.30
2023-03-14T14:12:11.314Z,1.00
2023-03-14T14:14:47.002Z,1.13
2023-03-14T14:17:19.281Z,1.20
2023-03-14T14:19:47.588Z,1.23
2023-03-14T14:22:14.541Z,1.00
2023-03-14T14:24:41.645Z,1.20
2023-03-14T14:27:17.644Z,1.20
2023-03-14T14:29:45.395Z,1.00
2023-03-14T14:32:15.550Z,1.30
2023-03-14T14:34:55.311Z,1.00
2023-03-14T14:37:43.394Z,1.30
2023-03-14T14:40:19.131Z,1.10
2023-03-14T14:42:46.090Z,1.03
2023-03-14T14:45:17.388Z,1.20
2023-03-14T14:48:05.006Z,1.40
2023-03-14T14:50:34.295Z,1.13
2023-03-14T14:53:22.337Z,0.70
2023-03-14T14:55:52.390Z,0.70
2023-03-14T14:58:30.620Z,0.70
2023-03-14T15:01:06.560Z,0.80
2023-03-14T15:03:35.444Z,0.80
2023-03-14T15:06:03.748Z,0.50
2023-03-14T15:08:30.795Z,0.60
2023-03-14T15:10:58.266Z,0.67
2023-03-14T15:13:24.612Z,0.70
2023-03-14T15:15:56.679Z,1.00
2023-03-14T15:18:25.851Z,1.20
2023-03-14T15:20:52.832Z,1.00
2023-03-14T15:23:22.802Z,0.90
2023-03-14T15:25:57.265Z,1.10
2023-03-14T15:28:29.102Z,1.00
2023-03-14T15:30:58.087Z,1.00
2023-03-14T15:33:26.322Z,1.00
2023-03-14T15:35:53.343Z,1.30
2023-03-14T15:38:24.367Z,1.10
2023-03-14T15:40:52.357Z,1.10
2023-03-14T15:43:19.978Z,1.23
2023-03-14T15:45:46.726Z,1.27
2023-03-14T15:48:16.595Z,1.20
2023-03-14T15:50:44.168Z,1.30
2023-03-14T15:53:11.159Z,1.30
2023-03-14T15:55:37.452Z,1.10
2023-03-14T15:58:04.068Z,1.30
2023-03-14T16:00:31.446Z,1.37
2023-03-14T16:02:58.805Z,1.30
2023-03-14T16:05:25.156Z,1.30
2023-03-14T16:07:51.693Z,1.33
2023-03-14T16:10:18.017Z,1.20
2023-03-14T16:12:44.948Z,1.30
2023-03-14T16:15:11.599Z,1.17
2023-03-14T16:17:38.737Z,1.17
2023-03-14T16:20:05.874Z,1.37
2023-03-14T16:22:35.696Z,1.33
2023-03-14T16:25:07.251Z,1.20
2023-03-14T16:27:33.851Z,1.20
2023-03-14T16:30:00.517Z,1.10
2023-03-14T16:32:27.713Z,1.10
2023-03-14T16:34:54.346Z,0.80
2023-03-14T16:37:21.621Z,0.97
2023-03-14T16:40:10.290Z,1.07
2023-03-14T16:42:35.790Z,0.70
2023-03-14T16:45:02.131Z,1.10
2023-03-14T16:47:30.129Z,0.90
2023-03-14T16:49:56.524Z,0.73
2023-03-14T16:52:22.839Z,0.70
2023-03-14T16:54:49.134Z,0.70
2023-03-14T16:57:15.511Z,0.70
2023-03-14T16:59:41.839Z,0.70
2023-03-14T17:02:09.120Z,0.50
2023-03-14T17:04:35.476Z,0.70
2023-03-14T17:07:01.852Z,0.60
2023-03-14T17:09:28.612Z,0.70
2023-03-14T17:11:55.714Z,0.57
2023-03-14T17:14:22.074Z,0.60
2023-03-14T17:16:48.637Z,0.70
2023-03-14T17:19:14.998Z,0.70
2023-03-14T17:21:41.333Z,0.60
2023-03-14T17:24:07.807Z,0.70
2023-03-14T17:26:34.254Z,0.40
2023-03-14T17:29:00.551Z,0.67
2023-03-14T17:31:27.086Z,0.50
2023-03-14T17:33:54.889Z,0.60
2023-03-14T17:36:25.008Z,0.60
2023-03-14T17:38:53.223Z,0.50
2023-03-14T17:41:19.584Z,0.53
2023-03-14T17:43:46.116Z,0.60
2023-03-14T17:46:17.512Z,0.73
2023-03-14T17:48:45.761Z,0.60
2023-03-14T17:51:12.643Z,0.80
2023-03-14T17:53:39.306Z,0.83
2023-03-14T17:56:06.294Z,0.60
2023-03-14T17:58:36.464Z,0.77
2023-03-14T18:01:11.077Z,1.00
2023-03-14T18:03:37.763Z,1.10
2023-03-14T18:06:08.390Z,1.20
2023-03-14T18:08:35.205Z,1.30
2023-03-14T18:11:01.562Z,1.30
2023-03-14T18:13:27.957Z,1.60
2023-03-14T18:15:54.679Z,1.47
2023-03-14T18:18:21.123Z,1.10
2023-03-14T18:20:52.481Z,1.27
2023-03-14T18:23:19.910Z,1.60
2023-03-14T18:25:46.684Z,1.40
2023-03-14T18:28:13.022Z,1.33
2023-03-14T18:30:39.505Z,1.43
2023-03-14T18:33:06.024Z,1.60
2023-03-14T18:35:32.371Z,1.50
2023-03-14T18:37:58.669Z,1.80
2023-03-14T18:40:25.405Z,1.90
2023-03-14T18:42:51.782Z,1.67
2023-03-14T18:45:18.076Z,2.10
2023-03-14T18:47:44.603Z,2.20
2023-03-14T18:50:11.662Z,2.33
2023-03-14T18:52:38.010Z,2.40
2023-03-14T18:55:04.618Z,2.10
2023-03-14T18:57:31.239Z,2.63
2023-03-14T18:59:58.356Z,2.03
2023-03-14T19:02:25.814Z,2.30
2023-03-14T19:04:52.924Z,2.30
2023-03-14T19:07:20.417Z,2.90
2023-03-14T19:09:46.814Z,2.73
2023-03-14T19:12:13.124Z,2.80
2023-03-14T19:14:39.463Z,2.40
2023-03-14T19:17:05.833Z,1.90
2023-03-14T19:19:32.166Z,1.70
2023-03-14T19:21:59.425Z,1.43
2023-03-14T19:24:25.810Z,1.47
2023-03-14T19:26:54.234Z,1.70
2023-03-14T19:29:21.224Z,1.57
2023-03-14T19:31:47.591Z,1.40
2023-03-14T19:34:13.977Z,1.60
2023-03-14T19:36:40.331Z,1.90
2023-03-14T19:39:07.077Z,1.60
2023-03-14T19:41:34.233Z,2.00
2023-03-14T19:44:01.609Z,2.37
2023-03-14T19:46:29.528Z,3.00
2023-03-14T19:48:55.996Z,1.90
2023-03-14T19:51:22.772Z,1.60
2023-03-14T19:53:49.730Z,1.60
2023-03-14T19:56:16.021Z,1.37
2023-03-14T19:58:43.628Z,1.50
2023-03-14T20:01:09.990Z,1.43
2023-03-14T20:03:36.738Z,1.30
2023-03-14T20:06:08.301Z,1.00
2023-03-14T20:08:35.309Z,1.30
2023-03-14T20:11:06.586Z,1.80
2023-03-14T20:13:33.213Z,2.00
2023-03-14T20:15:59.708Z,2.67
2023-03-14T20:18:26.045Z,2.50
2023-03-14T20:20:52.400Z,1.70
2023-03-14T20:23:18.792Z,2.90
2023-03-14T20:25:53.195Z,1.83
2023-03-14T20:28:20.798Z,1.87
2023-03-14T20:30:47.153Z,1.87
2023-03-14T20:33:13.517Z,1.90
2023-03-14T20:35:39.893Z,1.77
2023-03-14T20:38:06.305Z,1.60
2023-03-14T20:40:33.864Z,1.73
2023-03-14T20:43:00.292Z,1.87
2023-03-14T20:45:26.750Z,1.50
2023-03-14T20:47:53.104Z,1.53
2023-03-14T20:50:19.680Z,2.03
2023-03-14T20:52:46.249Z,1.70
2023-03-14T20:55:12.693Z,1.67
2023-03-14T20:57:38.978Z,2.30
2023-03-14T21:00:07.649Z,1.60
2023-03-14T21:02:36.941Z,1.60
2023-03-14T21:05:04.270Z,1.60
2023-03-14T21:07:34.212Z,1.90
2023-03-14T21:10:00.661Z,1.80
2023-03-14T21:12:27.044Z,1.80
2023-03-14T21:14:53.488Z,2.00
2023-03-14T21:17:19.795Z,1.70
2023-03-14T21:19:46.137Z,1.90
2023-03-14T21:22:18.189Z,1.67
2023-03-14T21:24:45.673Z,1.70
2023-03-14T21:27:12.329Z,1.80
2023-03-14T21:29:38.677Z,1.73
2023-03-14T21:32:05.080Z,2.23
2023-03-14T21:34:31.437Z,1.70
2023-03-14T21:36:57.720Z,2.03
2023-03-14T21:39:24.091Z,2.20
2023-03-14T21:41:50.393Z,2.03
2023-03-14T21:44:18.923Z,2.00
2023-03-14T21:46:45.986Z,2.10
2023-03-14T21:49:13.897Z,2.00
2023-03-14T21:51:40.820Z,2.00
2023-03-14T21:54:09.976Z,1.97
2023-03-14T21:56:37.810Z,1.90
2023-03-14T21:59:04.721Z,1.90
2023-03-14T22:01:32.176Z,2.00
2023-03-14T22:03:59.666Z,2.00
2023-03-14T22:06:27.661Z,1.90
2023-03-14T22:08:57.326Z,2.10
2023-03-14T22:11:24.786Z,2.40
2023-03-14T22:13:51.251Z,2.30
2023-03-14T22:16:17.708Z,2.30
2023-03-14T22:18:44.203Z,2.07
2023-03-14T22:21:10.492Z,2.47
2023-03-14T22:23:36.804Z,2.00
2023-03-14T22:26:03.214Z,1.93
2023-03-14T22:28:29.560Z,2.40
2023-03-14T22:30:55.905Z,2.33
2023-03-14T22:33:22.385Z,2.17
2023-03-14T22:35:49.680Z,2.47
2023-03-14T22:38:16.229Z,2.50
2023-03-14T22:40:42.601Z,2.20
2023-03-14T22:43:09.215Z,2.23
2023-03-14T22:45:35.556Z,2.43
2023-03-14T22:48:01.880Z,2.20
2023-03-14T22:50:28.207Z,2.00
2023-03-14T22:52:54.736Z,2.07
2023-03-14T22:55:21.271Z,2.63
2023-03-14T22:57:51.413Z,2.40
2023-03-14T23:00:17.937Z,2.00
2023-03-14T23:02:44.316Z,2.40
2023-03-14T23:05:10.612Z,2.40
2023-03-14T23:07:37.098Z,2.10
2023-03-14T23:10:03.850Z,2.20
2023-03-14T23:12:30.200Z,2.30
2023-03-14T23:14:56.545Z,1.93
2023-03-14T23:17:25.389Z,2.10
2023-03-14T23:19:53.514Z,2.00
2023-03-14T23:22:19.979Z,2.37
2023-03-14T23:24:48.454Z,2.20
2023-03-14T23:27:16.150Z,2.40
2023-03-14T23:29:42.643Z,2.50
2023-03-14T23:32:09.044Z,2.13
2023-03-14T23:34:37.138Z,2.10
2023-03-14T23:37:04.939Z,2.30
2023-03-14T23:39:31.360Z,2.03
2023-03-14T23:41:57.668Z,2.10
2023-03-14T23:44:26.325Z,2.23
2023-03-14T23:46:53.258Z,2.37
2023-03-14T23:49:19.792Z,1.73
2023-03-14T23:51:46.109Z,2.17
2023-03-14T23:54:13.319Z,2.10
2023-03-14T23:56:41.087Z,1.90
2023-03-14T23:59:07.768Z,1.60
